Time;durP1;ratioP1;P1;durP2;ratioP2;P2;SDS_P1;SDS_P2;PMS_P1;PMS_P2;Temp;Humidity;BMP_temperature;BMP_pressure;BME280_temperature;BME280_humidity;BME280_pressure;Samples;Min_cycle;Max_cycle;Signal;HPM_P1;HPM_P2
2023/06/17 00:00:37;;;;;;;2.38;1.42;;;;;;;27.61;38.30;101826.31;4998536;28;20112;-33
2023/06/17 00:03:03;;;;;;;1.70;1.27;;;;;;;27.59;37.87;101828.41;5007058;28;20077;-32
2023/06/17 00:05:30;;;;;;;3.20;1.60;;;;;;;27.59;38.24;101824.84;4994028;28;20093;-33
2023/06/17 00:07:57;;;;;;;3.53;1.45;;;;;;;27.59;38.36;101827.56;4996638;28;20046;-33
2023/06/17 00:10:23;;;;;;;2.13;1.60;;;;;;;27.57;38.80;101827.75;4999553;28;20090;-32
2023/06/17 00:12:50;;;;;;;1.63;1.30;;;;;;;27.56;38.09;101818.72;4993644;28;20054;-32
2023/06/17 00:15:16;;;;;;;1.38;1.27;;;;;;;27.54;38.31;101823.53;5001456;28;20395;-33
2023/06/17 00:17:46;;;;;;;1.58;1.25;;;;;;;27.53;38.27;101819.09;5002883;28;20053;-32
2023/06/17 00:20:14;;;;;;;1.90;1.40;;;;;;;27.51;38.40;101815.75;5000370;28;20112;-32
2023/06/17 00:22:43;;;;;;;3.17;1.40;;;;;;;27.50;38.51;101807.78;5002877;28;20431;-32
2023/06/17 00:25:12;;;;;;;2.40;1.67;;;;;;;27.49;38.13;101806.91;5004722;28;20046;-32
2023/06/17 00:27:40;;;;;;;1.88;1.42;;;;;;;27.48;38.66;101809.84;5001974;28;20104;-32
2023/06/17 00:30:07;;;;;;;2.10;1.35;;;;;;;27.47;38.28;101806.28;5001813;28;20038;-32
2023/06/17 00:32:34;;;;;;;1.83;1.50;;;;;;;27.45;38.66;101797.44;5001163;28;20057;-32
2023/06/17 00:35:05;;;;;;;2.83;1.30;;;;;;;27.45;38.38;101799.31;4991621;28;20527;-32
2023/06/17 00:37:32;;;;;;;2.97;1.60;;;;;;;27.44;38.68;101797.66;4995328;28;20050;-33
2023/06/17 00:39:59;;;;;;;2.00;1.40;;;;;;;27.42;38.40;101799.72;5004060;28;20131;-32
2023/06/17 00:42:25;;;;;;;1.85;1.60;;;;;;;27.41;38.16;101798.03;5004598;28;20049;-33
2023/06/17 00:44:52;;;;;;;1.40;1.30;;;;;;;27.39;38.62;101791.94;5002831;28;20056;-32
2023/06/17 00:47:19;;;;;;;1.48;1.30;;;;;;;27.38;38.38;101790.25;5005057;28;20050;-32
2023/06/17 00:49:47;;;;;;;1.95;1.30;;;;;;;27.37;38.37;101796.72;5002491;28;20119;-32
2023/06/17 00:52:14;;;;;;;1.98;1.55;;;;;;;27.35;38.46;101794.22;5002112;28;20096;-32
2023/06/17 00:55:01;;;;;;;2.10;1.48;;;;;;;27.35;38.65;101793.38;5001997;28;20426;-32
2023/06/17 00:57:29;;;;;;;1.92;1.50;;;;;;;27.33;38.72;101796.28;5002402;28;20313;-32
2023/06/17 00:59:55;;;;;;;3.88;1.48;;;;;;;27.32;38.40;101794.59;5002911;28;20081;-32
2023/06/17 01:02:25;;;;;;;1.50;1.30;;;;;;;27.30;38.50;101796.69;5002068;28;20050;-32
2023/06/17 01:04:53;;;;;;;1.52;1.25;;;;;;;27.30;38.65;101783.91;4999100;28;20047;-33
2023/06/17 01:07:58;;;;;;;1.63;1.50;;;;;;;27.26;38.69;101787.22;5000619;28;20053;-33
2023/06/17 01:10:32;;;;;;;;;;;;;;;27.25;38.69;101786.34;5000901;28;20054;-32
2023/06/17 01:13:11;;;;;;;1.52;1.33;;;;;;;27.28;38.38;101787.84;5076083;27;20711;-32
2023/06/17 01:15:39;;;;;;;2.05;1.50;;;;;;;27.24;38.22;101786.53;5055163;28;20364;-33
2023/06/17 01:18:07;;;;;;;1.33;1.20;;;;;;;27.23;38.41;101785.69;5056801;28;20060;-31
2023/06/17 01:20:35;;;;;;;1.65;1.38;;;;;;;27.21;38.38;101793.19;5052268;28;20056;-31
2023/06/17 01:23:05;;;;;;;1.85;1.60;;;;;;;27.20;38.59;101785.25;5055259;28;20517;-32
2023/06/17 01:25:33;;;;;;;1.58;1.38;;;;;;;27.18;39.01;101779.16;5059206;28;20049;-32
2023/06/17 01:28:15;;;;;;;1.92;1.50;;;;;;;27.17;38.60;101774.72;5055472;28;20080;-32
2023/06/17 01:30:44;;;;;;;1.83;1.53;;;;;;;27.16;38.97;101779.34;5051803;28;20049;-32
2023/06/17 01:33:13;;;;;;;1.65;1.50;;;;;;;27.15;38.24;101772.22;5048364;28;20072;-31
2023/06/17 01:35:45;;;;;;;2.53;1.70;;;;;;;27.14;38.56;101775.97;5047906;28;20491;-31
2023/06/17 01:38:18;;;;;;;2.72;1.88;;;;;;;27.12;38.60;101775.31;5049400;28;20053;-31
2023/06/17 01:40:48;;;;;;;;;;;;;;;27.10;38.68;101774.66;5056256;28;20049;-32
2023/06/17 01:43:16;;;;;;;2.45;1.30;;;;;;;27.13;38.52;101779.72;5055410;28;19964;-32
2023/06/17 01:45:45;;;;;;;3.08;1.63;;;;;;;27.12;38.46;101782.63;5047194;28;20496;-32
2023/06/17 01:48:12;;;;;;;2.22;1.60;;;;;;;27.08;38.93;101771.25;5053736;28;20463;-31
2023/06/17 01:50:39;;;;;;;2.78;1.58;;;;;;;27.07;39.07;101773.13;5052560;28;20138;-33
2023/06/17 01:53:05;;;;;;;2.03;1.70;;;;;;;27.06;38.42;101779.63;5058012;28;20086;-32
2023/06/17 01:55:32;;;;;;;2.92;1.48;;;;;;;27.05;38.94;101786.06;5053744;28;20136;-32
2023/06/17 01:57:58;;;;;;;2.03;1.65;;;;;;;27.04;39.09;101778.13;5053022;28;20057;-31
2023/06/17 02:00:26;;;;;;;1.80;1.60;;;;;;;27.02;38.81;101775.59;5058739;28;20057;-32
2023/06/17 02:02:53;;;;;;;1.75;1.50;;;;;;;27.02;38.92;101772.03;5058112;28;20045;-32
2023/06/17 02:05:19;;;;;;;1.70;1.30;;;;;;;27.02;38.79;101774.75;5053890;28;20049;-32
2023/06/17 02:07:47;;;;;;;1.48;1.38;;;;;;;27.00;38.72;101774.09;5051618;28;20041;-32
2023/06/17 02:10:14;;;;;;;1.55;1.45;;;;;;;26.98;39.04;101768.84;5054274;28;20056;-32
2023/06/17 02:12:41;;;;;;;1.90;1.60;;;;;;;26.98;38.66;101766.13;5052125;28;20140;-32
2023/06/17 02:15:08;;;;;;;1.77;1.45;;;;;;;26.98;38.68;101765.28;5054802;28;20384;-31
2023/06/17 02:17:35;;;;;;;1.40;1.30;;;;;;;26.97;38.73;101767.13;5054737;28;20236;-32
2023/06/17 02:20:06;;;;;;;1.42;1.33;;;;;;;26.96;38.92;101767.34;5055525;28;20053;-32
2023/06/17 02:22:33;;;;;;;1.52;1.35;;;;;;;26.96;39.06;101775.50;5053000;28;20045;-32
2023/06/17 02:25:00;;;;;;;2.00;1.73;;;;;;;26.94;38.68;101766.72;5044656;28;20093;-32
2023/06/17 02:27:27;;;;;;;1.80;1.60;;;;;;;26.93;38.75;101759.56;5042377;28;20364;-32
2023/06/17 02:29:53;;;;;;;1.98;1.40;;;;;;;26.92;39.24;101766.03;5041867;28;20053;-32
2023/06/17 02:32:20;;;;;;;2.28;1.67;;;;;;;26.91;38.75;101761.63;5041573;28;20106;-31
2023/06/17 02:34:49;;;;;;;2.05;1.58;;;;;;;26.90;39.35;101754.50;5039769;28;20136;-32
2023/06/17 02:37:16;;;;;;;2.50;1.83;;;;;;;26.89;38.98;101760.97;5039000;28;20064;-32
2023/06/17 02:39:42;;;;;;;1.65;1.50;;;;;;;26.88;38.99;101759.28;5071834;28;20379;-31
2023/06/17 02:42:11;;;;;;;1.50;1.33;;;;;;;26.87;39.19;101754.88;5039114;28;20046;-32
2023/06/17 02:44:38;;;;;;;2.38;1.60;;;;;;;26.87;39.11;101769.34;5042186;28;20053;-31
2023/06/17 02:47:06;;;;;;;2.78;1.60;;;;;;;26.85;39.01;101759.66;5037156;28;20338;-32
2023/06/17 02:49:33;;;;;;;1.80;1.60;;;;;;;26.83;38.77;101760.69;5040457;28;20055;-32
2023/06/17 02:51:59;;;;;;;2.42;2.00;;;;;;;26.82;38.94;101755.47;5038119;28;20042;-32
2023/06/17 02:54:26;;;;;;;1.58;1.40;;;;;;;26.82;38.87;101750.03;5070804;28;20435;-32
2023/06/17 02:56:53;;;;;;;2.40;1.70;;;;;;;26.80;39.13;101742.03;5034492;28;20050;-32
2023/06/17 02:59:19;;;;;;;3.17;1.80;;;;;;;26.80;39.04;101752.06;5040070;28;20054;-31
2023/06/17 03:01:46;;;;;;;2.60;1.70;;;;;;;26.79;38.71;101739.53;5044574;28;20045;-32
2023/06/17 03:04:13;;;;;;;3.08;1.98;;;;;;;26.78;38.88;101744.13;5042126;28;20092;-32
2023/06/17 03:06:41;;;;;;;2.03;1.83;;;;;;;26.77;38.95;101744.28;5048619;28;20049;-32
2023/06/17 03:09:08;;;;;;;3.08;1.85;;;;;;;26.76;39.02;101753.50;5048946;28;20060;-32
2023/06/17 03:11:39;;;;;;;2.15;1.65;;;;;;;26.74;39.26;101753.69;5049117;28;20057;-31
2023/06/17 03:14:06;;;;;;;2.05;1.67;;;;;;;26.72;38.86;101746.75;5043377;28;20430;-32
2023/06/17 03:16:33;;;;;;;2.50;1.75;;;;;;;26.72;39.05;101749.47;5049720;28;20083;-32
2023/06/17 03:19:01;;;;;;;2.10;1.88;;;;;;;26.72;39.14;101749.47;5042814;28;20163;-32
2023/06/17 03:21:30;;;;;;;3.70;1.95;;;;;;;26.70;39.49;101746.94;5048779;28;20289;-32
2023/06/17 03:23:58;;;;;;;2.05;1.65;;;;;;;26.70;39.07;101743.38;5044204;28;20059;-31
2023/06/17 03:26:25;;;;;;;2.47;2.00;;;;;;;26.68;39.25;101745.44;5048887;28;20086;-32
2023/06/17 03:28:53;;;;;;;1.73;1.58;;;;;;;26.68;39.23;101743.56;5045041;28;20124;-32
2023/06/17 03:31:21;;;;;;;3.35;1.70;;;;;;;26.67;39.04;101744.59;5035084;28;20053;-31
2023/06/17 03:33:51;;;;;;;2.67;1.77;;;;;;;26.66;38.99;101742.91;5041998;28;20341;-31
2023/06/17 03:36:19;;;;;;;2.30;1.60;;;;;;;26.65;38.95;101743.94;5032652;28;20053;-32
2023/06/17 03:38:46;;;;;;;2.72;1.90;;;;;;;26.65;39.10;101743.09;5035247;28;20049;-32
2023/06/17 03:41:12;;;;;;;2.30;1.88;;;;;;;26.64;39.26;101741.41;5037286;28;20053;-32
2023/06/17 03:43:39;;;;;;;1.83;1.65;;;;;;;26.63;39.15;101740.56;5036755;28;20053;-32
2023/06/17 03:46:06;;;;;;;2.05;1.63;;;;;;;26.63;39.26;101737.00;5037859;28;20127;-32
2023/06/17 03:48:32;;;;;;;2.83;1.80;;;;;;;26.62;39.08;101741.59;5039393;28;20076;-32
2023/06/17 03:51:00;;;;;;;2.13;1.92;;;;;;;26.61;38.98;101748.06;5035954;28;20053;-32
2023/06/17 03:53:27;;;;;;;2.58;2.17;;;;;;;26.60;39.01;101745.53;5039411;28;20078;-31
2023/06/17 03:55:54;;;;;;;2.83;2.22;;;;;;;26.61;39.07;101741.78;5035965;28;20049;-32
2023/06/17 03:58:20;;;;;;;2.35;2.03;;;;;;;26.59;39.12;101744.69;5033540;28;20053;-32
2023/06/17 04:00:47;;;;;;;2.63;1.95;;;;;;;26.58;39.28;101743.84;5039094;28;20528;-31
2023/06/17 04:03:14;;;;;;;2.67;2.17;;;;;;;26.59;39.00;101747.41;5037069;28;20513;-32
2023/06/17 04:05:42;;;;;;;2.38;1.70;;;;;;;26.58;39.30;101749.28;5038077;28;20053;-32
2023/06/17 04:08:09;;;;;;;2.95;2.00;;;;;;;26.57;39.08;101750.34;5038556;28;20143;-32
2023/06/17 04:10:36;;;;;;;3.67;2.10;;;;;;;26.58;39.16;101748.47;5037593;28;20107;-33
2023/06/17 04:13:02;;;;;;;2.20;2.00;;;;;;;26.56;39.19;101743.19;5035581;28;20107;-32
2023/06/17 04:15:29;;;;;;;2.75;2.25;;;;;;;26.56;39.36;101740.47;5037870;28;20057;-32
2023/06/17 04:17:56;;;;;;;3.13;1.92;;;;;;;26.56;39.34;101742.34;5034537;28;20377;-31
2023/06/17 04:20:25;;;;;;;2.28;1.83;;;;;;;26.56;39.19;101753.22;5034570;28;20453;-32
2023/06/17 04:22:52;;;;;;;1.63;1.38;;;;;;;26.56;39.26;101745.91;5033378;28;20052;-32
2023/06/17 04:25:20;;;;;;;2.83;2.00;;;;;;;26.55;39.52;101743.38;5043776;28;20084;-31
2023/06/17 04:27:53;;;;;;;2.42;1.92;;;;;;;26.56;39.24;101745.91;5032437;28;20064;-32
2023/06/17 04:30:20;;;;;;;2.42;1.83;;;;;;;26.56;39.20;101754.06;5037669;28;20057;-32
2023/06/17 04:32:47;;;;;;;2.15;1.88;;;;;;;26.55;39.25;101746.94;5041218;28;20094;-32
2023/06/17 04:35:14;;;;;;;2.53;2.00;;;;;;;26.55;39.11;101757.81;5041508;28;20053;-32
2023/06/17 04:37:40;;;;;;;2.75;2.08;;;;;;;26.56;39.35;101750.50;5043196;28;20439;-32
2023/06/17 04:40:11;;;;;;;2.08;1.73;;;;;;;26.56;39.21;101751.34;5042862;28;20103;-32
2023/06/17 04:42:40;;;;;;;1.98;1.77;;;;;;;26.56;39.26;101748.63;5044267;28;20077;-32
2023/06/17 04:45:10;;;;;;;2.65;1.90;;;;;;;26.56;39.06;101748.63;5039857;28;20123;-31
2023/06/17 04:47:36;;;;;;;2.55;2.00;;;;;;;26.58;39.42;101743.84;5043662;28;20060;-31
2023/06/17 04:50:04;;;;;;;2.53;1.92;;;;;;;26.59;39.20;101750.13;5043025;28;20061;-32
2023/06/17 04:52:31;;;;;;;6.43;2.28;;;;;;;26.60;38.92;101745.53;5042314;28;20112;-31
2023/06/17 04:54:58;;;;;;;2.50;1.90;;;;;;;26.61;39.27;101745.34;5045308;28;20045;-31
2023/06/17 04:57:25;;;;;;;2.08;1.88;;;;;;;26.62;39.03;101738.06;5040457;28;20072;-32
2023/06/17 04:59:51;;;;;;;2.92;2.22;;;;;;;26.63;39.22;101742.44;5039043;28;20144;-31
2023/06/17 05:02:18;;;;;;;2.63;2.15;;;;;;;26.65;39.22;101743.09;5040156;28;20418;-32
2023/06/17 05:04:44;;;;;;;2.25;1.95;;;;;;;26.66;39.25;101742.91;5043033;28;20103;-31
2023/06/17 05:07:11;;;;;;;2.28;1.83;;;;;;;26.67;39.09;101741.88;5042442;28;20102;-32
2023/06/17 05:09:38;;;;;;;1.65;1.55;;;;;;;26.69;39.20;101747.13;5041525;28;20140;-31
2023/06/17 05:12:04;;;;;;;2.75;1.73;;;;;;;26.71;39.15;101742.34;5038320;28;20093;-32
2023/06/17 05:14:31;;;;;;;2.10;1.90;;;;;;;26.72;39.04;101746.75;5036548;28;20751;-31
2023/06/17 05:16:57;;;;;;;2.22;1.85;;;;;;;26.74;38.74;101747.41;5040189;28;20127;-32
2023/06/17 05:19:24;;;;;;;2.50;1.83;;;;;;;26.74;39.18;101742.81;5038855;28;20098;-32
2023/06/17 05:21:51;;;;;;;3.30;2.15;;;;;;;26.77;38.99;101752.44;5038524;28;20053;-31
2023/06/17 05:24:17;;;;;;;2.30;1.85;;;;;;;26.79;39.08;101744.97;5042133;28;20536;-32
2023/06/17 05:26:44;;;;;;;3.05;2.10;;;;;;;26.80;39.00;101750.19;5041347;28;20103;-32
2023/06/17 05:29:11;;;;;;;2.15;1.60;;;;;;;26.81;39.12;101751.91;5037978;28;20119;-31
2023/06/17 05:31:37;;;;;;;2.70;2.08;;;;;;;26.83;39.05;101743.53;5032534;28;20127;-32
2023/06/17 05:34:04;;;;;;;2.47;1.77;;;;;;;26.85;38.99;101748.78;5034660;28;20096;-32
2023/06/17 05:36:31;;;;;;;2.28;1.60;;;;;;;26.88;39.11;101748.41;5038463;28;20137;-32
2023/06/17 05:38:57;;;;;;;2.78;2.00;;;;;;;26.90;38.69;101757.25;5032284;28;20133;-31
2023/06/17 05:41:24;;;;;;;2.05;1.85;;;;;;;26.92;38.76;101749.72;5064475;28;20099;-33
2023/06/17 05:43:51;;;;;;;2.35;1.83;;;;;;;26.93;38.91;101746.78;5034806;28;20112;-31
2023/06/17 05:46:17;;;;;;;1.85;1.63;;;;;;;26.96;38.68;101753.75;5034565;28;20062;-32
2023/06/17 05:48:44;;;;;;;1.75;1.65;;;;;;;26.97;38.63;101756.25;5031454;28;20214;-31
2023/06/17 05:51:11;;;;;;;3.13;1.95;;;;;;;26.99;38.77;101745.19;5038121;28;20057;-31
2023/06/17 05:53:37;;;;;;;2.15;1.85;;;;;;;27.01;38.64;101748.56;5033597;28;20068;-31
2023/06/17 05:56:08;;;;;;;2.38;1.88;;;;;;;27.01;38.51;101754.84;5040738;28;20127;-31
2023/06/17 05:58:35;;;;;;;1.85;1.60;;;;;;;27.03;38.36;101746.50;5031480;28;20068;-30
2023/06/17 06:01:03;;;;;;;2.50;2.00;;;;;;;27.05;38.75;101755.31;5046598;28;20053;-31
2023/06/17 06:03:29;;;;;;;2.05;1.80;;;;;;;27.05;38.67;101756.13;5033681;28;20420;-33
2023/06/17 06:05:56;;;;;;;1.80;1.50;;;;;;;27.05;38.54;101747.97;5038895;28;20058;-31
2023/06/17 06:08:22;;;;;;;2.13;1.92;;;;;;;27.05;39.00;101750.69;5067844;28;20317;-30
2023/06/17 06:10:49;;;;;;;1.95;1.75;;;;;;;27.07;38.80;101750.53;5040493;28;20096;-31
2023/06/17 06:13:16;;;;;;;2.00;1.80;;;;;;;27.08;38.45;101749.47;5033814;28;20049;-31
2023/06/17 06:15:42;;;;;;;2.50;1.80;;;;;;;27.07;38.38;101747.81;5042826;28;20433;-31
2023/06/17 06:18:09;;;;;;;2.00;1.80;;;;;;;27.07;38.68;101745.91;5033827;28;20151;-31
2023/06/17 06:20:35;;;;;;;2.10;1.90;;;;;;;27.07;38.89;101737.75;5042496;28;20056;-30
2023/06/17 06:23:02;;;;;;;2.30;1.83;;;;;;;27.07;38.88;101754.09;5042001;28;20076;-31
2023/06/17 06:25:28;;;;;;;1.85;1.60;;;;;;;27.06;38.57;101749.69;5042381;28;20045;-33
2023/06/17 06:27:55;;;;;;;1.88;1.67;;;;;;;27.07;38.53;101751.38;5043335;28;20058;-31
2023/06/17 06:30:22;;;;;;;2.22;1.65;;;;;;;27.06;38.77;101746.97;5043523;28;20416;-33
2023/06/17 06:32:49;;;;;;;2.35;1.90;;;;;;;27.05;38.94;101745.25;5043943;28;20119;-31
2023/06/17 06:35:16;;;;;;;2.88;1.88;;;;;;;27.06;38.54;101746.13;5047959;28;20135;-31
2023/06/17 06:37:42;;;;;;;2.28;1.65;;;;;;;27.06;38.56;101749.69;5041253;28;20099;-33
2023/06/17 06:40:09;;;;;;;2.75;1.90;;;;;;;27.06;38.69;101744.25;5044594;28;20334;-31
2023/06/17 06:42:36;;;;;;;2.00;1.48;;;;;;;27.07;38.61;101745.09;5041871;28;20049;-32
2023/06/17 06:45:03;;;;;;;2.38;1.88;;;;;;;27.07;38.56;101747.81;5040389;28;20077;-31
2023/06/17 06:47:30;;;;;;;1.65;1.52;;;;;;;27.08;38.70;101744.03;5033280;28;20377;-31
2023/06/17 06:49:56;;;;;;;1.77;1.65;;;;;;;27.08;38.92;101741.31;5041423;28;20249;-31
2023/06/17 06:52:23;;;;;;;1.83;1.60;;;;;;;27.08;38.63;101744.88;5039997;28;20049;-32
2023/06/17 06:54:50;;;;;;;1.63;1.50;;;;;;;27.08;38.80;101741.31;5043776;28;20144;-32
2023/06/17 06:57:17;;;;;;;2.40;2.00;;;;;;;27.08;38.70;101750.31;5033314;28;20077;-32
2023/06/17 06:59:43;;;;;;;2.00;1.80;;;;;;;27.08;38.65;101744.88;5035459;28;20428;-32
2023/06/17 07:02:10;;;;;;;1.98;1.70;;;;;;;27.08;38.61;101744.88;5036962;28;20326;-31
2023/06/17 07:04:37;;;;;;;2.17;1.65;;;;;;;27.08;38.83;101746.75;5039664;28;20432;-32
2023/06/17 07:07:04;;;;;;;2.17;1.98;;;;;;;27.08;38.62;101746.75;5038583;28;20049;-31
2023/06/17 07:09:30;;;;;;;2.03;1.25;;;;;;;27.08;38.49;101744.88;5034085;28;20445;-32
2023/06/17 07:11:57;;;;;;;2.20;1.65;;;;;;;27.08;38.68;101746.75;5032491;28;20054;-31
2023/06/17 07:14:24;;;;;;;2.50;1.60;;;;;;;27.08;38.89;101741.31;5034399;28;20448;-32
2023/06/17 07:16:50;;;;;;;2.13;1.80;;;;;;;27.08;39.01;101738.59;5034354;28;20378;-33
2023/06/17 07:19:17;;;;;;;2.22;1.73;;;;;;;27.07;38.72;101729.59;5032564;28;20057;-33
2023/06/17 07:21:43;;;;;;;2.85;1.52;;;;;;;27.07;38.46;101740.47;5039191;28;20071;-34
2023/06/17 07:24:10;;;;;;;2.30;1.48;;;;;;;27.08;39.00;101746.75;5051472;28;20396;-31
2023/06/17 07:26:36;;;;;;;5.85;1.92;;;;;;;27.08;38.54;101741.31;5051599;28;20068;-33
2023/06/17 07:29:03;;;;;;;2.25;1.70;;;;;;;27.07;38.69;101737.75;5036161;28;20490;-33
2023/06/17 07:31:30;;;;;;;2.25;1.88;;;;;;;27.08;38.42;101742.16;5032715;28;20464;-33
2023/06/17 07:33:57;;;;;;;2.08;1.85;;;;;;;27.09;38.49;101737.56;5035670;28;20080;-33
2023/06/17 07:36:25;;;;;;;2.30;1.77;;;;;;;27.09;38.86;101743.00;5038677;28;20155;-33
2023/06/17 07:38:52;;;;;;;1.55;1.45;;;;;;;27.10;38.58;101736.56;5033492;28;20534;-33
2023/06/17 07:41:20;;;;;;;1.95;1.60;;;;;;;27.09;38.55;101737.56;5063782;28;20056;-33
2023/06/17 07:43:46;;;;;;;2.00;1.80;;;;;;;27.08;38.73;101734.00;5037320;28;20664;-33
2023/06/17 07:46:13;;;;;;;2.17;1.70;;;;;;;27.09;38.64;101734.84;5036185;28;20455;-33
2023/06/17 07:48:40;;;;;;;2.03;1.60;;;;;;;27.12;38.71;101739.09;5041192;28;20514;-33
2023/06/17 07:51:07;;;;;;;2.08;1.67;;;;;;;27.11;38.65;101738.25;5039984;28;20052;-33
2023/06/17 07:53:33;;;;;;;2.25;1.83;;;;;;;27.12;38.82;101739.09;5036521;28;20133;-33
2023/06/17 07:56:00;;;;;;;2.00;1.75;;;;;;;27.12;38.73;101741.81;5039420;28;20122;-32
2023/06/17 07:58:27;;;;;;;3.88;1.90;;;;;;;27.11;38.79;101737.41;5036815;28;20049;-32
2023/06/17 08:00:53;;;;;;;2.33;1.88;;;;;;;27.12;38.83;101733.66;5042525;28;20132;-33
2023/06/17 08:03:20;;;;;;;1.73;1.63;;;;;;;27.13;38.27;101733.44;5040855;28;20057;-33
2023/06/17 08:05:47;;;;;;;2.88;1.70;;;;;;;27.13;38.17;101736.16;5038984;28;20071;-33
2023/06/17 08:08:14;;;;;;;1.85;1.55;;;;;;;27.13;38.32;101730.72;5038404;28;20057;-33
2023/06/17 08:10:41;;;;;;;1.80;1.65;;;;;;;27.13;38.52;101732.59;5039573;28;20057;-33
2023/06/17 08:13:07;;;;;;;2.03;1.83;;;;;;;27.14;38.69;101731.59;5038908;28;20053;-33
2023/06/17 08:15:35;;;;;;;1.70;1.60;;;;;;;27.14;38.47;101728.88;5037936;28;20122;-33
2023/06/17 08:18:01;;;;;;;1.30;1.20;;;;;;;27.15;38.60;101730.53;5035933;28;20103;-33
2023/06/17 08:20:28;;;;;;;2.25;1.70;;;;;;;27.15;38.43;101727.81;5035775;28;20050;-33
2023/06/17 08:22:55;;;;;;;1.80;1.70;;;;;;;27.15;38.52;101725.09;5070505;28;20069;-32
2023/06/17 08:25:21;;;;;;;2.08;1.52;;;;;;;27.15;38.70;101728.66;5038763;28;20048;-33
2023/06/17 08:27:50;;;;;;;2.38;1.60;;;;;;;27.16;38.14;101733.06;5037168;28;20112;-33
2023/06/17 08:30:17;;;;;;;1.75;1.63;;;;;;;27.16;38.21;101732.22;5035739;28;20468;-33
2023/06/17 08:32:44;;;;;;;2.20;1.50;;;;;;;27.17;38.33;101736.63;5034392;28;20444;-34
2023/06/17 08:35:10;;;;;;;1.92;1.70;;;;;;;27.17;38.75;101734.75;5034677;28;20146;-33
2023/06/17 08:37:37;;;;;;;2.00;1.73;;;;;;;27.16;38.30;101730.34;5034206;28;20334;-33
2023/06/17 08:40:05;;;;;;;1.83;1.67;;;;;;;27.17;38.56;101737.47;5031413;28;20440;-33
2023/06/17 08:42:32;;;;;;;2.00;1.42;;;;;;;27.19;38.19;101740.00;5033499;28;20045;-33
2023/06/17 08:45:00;;;;;;;1.90;1.70;;;;;;;27.19;38.11;101735.41;5033934;28;20046;-33
2023/06/17 08:47:27;;;;;;;2.30;1.45;;;;;;;27.19;38.12;101735.41;5035851;28;20361;-33
2023/06/17 08:49:58;;;;;;;3.75;2.05;;;;;;;27.21;38.41;101735.19;5045431;28;20348;-33
2023/06/17 08:52:26;;;;;;;1.70;1.60;;;;;;;27.22;38.60;101726.03;5044665;28;20052;-33
2023/06/17 08:54:53;;;;;;;2.00;1.60;;;;;;;27.22;38.56;101728.75;5046155;28;20056;-33
2023/06/17 08:57:20;;;;;;;1.77;1.50;;;;;;;27.22;38.44;101721.41;5044948;28;20092;-33
2023/06/17 08:59:47;;;;;;;2.05;1.85;;;;;;;27.24;38.45;101727.50;5046357;28;20110;-33
2023/06/17 09:02:15;;;;;;;2.00;1.80;;;;;;;27.25;38.25;101731.06;5045258;28;20055;-33
2023/06/17 09:04:42;;;;;;;2.38;1.90;;;;;;;27.26;38.34;101733.59;5044220;28;20434;-32
2023/06/17 09:07:09;;;;;;;1.77;1.40;;;;;;;27.27;38.56;101734.44;5045797;28;20060;-32
2023/06/17 09:09:36;;;;;;;2.03;1.63;;;;;;;27.29;38.81;101737.81;5045855;28;20049;-32
2023/06/17 09:12:08;;;;;;;1.77;1.65;;;;;;;27.30;38.48;101728.63;5042655;28;20377;-33
2023/06/17 09:14:36;;;;;;;2.03;1.73;;;;;;;27.30;38.45;101732.19;5043959;28;20511;-33
2023/06/17 09:17:03;;;;;;;2.35;1.90;;;;;;;27.33;38.43;101735.53;5040221;28;20053;-33
2023/06/17 09:19:31;;;;;;;1.73;1.60;;;;;;;27.35;38.64;101728.88;5040216;28;20081;-33
2023/06/17 09:22:07;;;;;;;3.17;1.63;;;;;;;27.37;38.58;101731.38;5042257;28;20160;-32
2023/06/17 09:24:33;;;;;;;2.22;1.80;;;;;;;27.39;39.03;101732.88;5039207;28;20330;-33
2023/06/17 09:27:02;;;;;;;1.77;1.60;;;;;;;27.44;38.81;101732.31;5037781;28;20349;-33
2023/06/17 09:29:29;;;;;;;2.10;1.67;;;;;;;27.44;38.55;101729.56;5032962;28;20135;-34
2023/06/17 09:31:57;;;;;;;2.50;1.80;;;;;;;27.47;38.43;101723.75;5036212;28;20053;-33
2023/06/17 09:34:26;;;;;;;1.83;1.50;;;;;;;27.51;38.63;101727.75;5033231;28;20132;-33
2023/06/17 09:36:59;;;;;;;1.65;1.38;;;;;;;27.54;38.48;101735.56;5037440;28;20087;-33
2023/06/17 09:39:31;;;;;;;2.25;1.73;;;;;;;27.56;38.92;101731.56;5036065;28;20454;-34
2023/06/17 09:42:06;;;;;;;2.17;1.77;;;;;;;27.61;38.93;101727.41;5041436;28;20051;-32
2023/06/17 09:44:33;;;;;;;1.60;1.50;;;;;;;27.64;38.53;101730.59;5036890;28;20046;-32
2023/06/17 09:47:07;;;;;;;2.53;1.40;;;;;;;27.68;38.70;101722.88;5039037;28;20140;-32
2023/06/17 09:49:35;;;;;;;1.90;1.52;;;;;;;27.71;38.59;101717.88;5038136;28;20099;-32
2023/06/17 09:52:05;;;;;;;3.28;1.92;;;;;;;27.74;38.20;101716.66;5040791;28;20166;-32
2023/06/17 09:54:33;;;;;;;2.63;1.70;;;;;;;27.78;38.49;101717.97;5037658;28;20053;-32
2023/06/17 09:57:03;;;;;;;3.38;2.00;;;;;;;27.80;38.21;101715.88;5041171;28;20156;-32
2023/06/17 09:59:30;;;;;;;1.80;1.40;;;;;;;27.85;38.11;101718.00;5033409;28;20088;-32
2023/06/17 10:01:56;;;;;;;2.13;1.60;;;;;;;27.87;38.41;101711.34;5042371;28;20048;-33
2023/06/17 10:04:23;;;;;;;2.25;1.80;;;;;;;27.90;38.65;101715.53;5033395;28;20505;-32
2023/06/17 10:06:51;;;;;;;1.90;1.60;;;;;;;27.93;38.63;101712.41;5067093;28;20083;-32
2023/06/17 10:09:18;;;;;;;2.90;1.80;;;;;;;27.95;38.14;101708.47;5036183;28;20057;-33
2023/06/17 10:11:48;;;;;;;1.88;1.77;;;;;;;27.98;38.41;101721.69;5035789;28;20433;-32
2023/06/17 10:14:21;;;;;;;2.00;1.80;;;;;;;27.99;38.72;101709.75;5048216;28;20219;-32
2023/06/17 10:16:49;;;;;;;1.88;1.50;;;;;;;28.03;38.84;101713.75;5041360;28;20136;-32
2023/06/17 10:19:19;;;;;;;2.03;1.83;;;;;;;28.05;38.69;101710.81;5041599;28;20111;-32
2023/06/17 10:21:50;;;;;;;2.03;1.50;;;;;;;28.08;38.01;101709.59;5040447;28;20045;-32
2023/06/17 10:24:17;;;;;;;1.98;1.65;;;;;;;28.11;37.98;101712.75;5044582;28;20046;-32
2023/06/17 10:26:44;;;;;;;2.55;1.40;;;;;;;28.13;38.15;101704.38;5046288;28;20049;-33
2023/06/17 10:29:12;;;;;;;1.92;1.48;;;;;;;28.15;38.04;101702.31;5041124;28;20433;-32
2023/06/17 10:31:40;;;;;;;1.90;1.35;;;;;;;28.17;38.13;101705.66;5041373;28;20053;-33
2023/06/17 10:34:25;;;;;;;2.05;1.65;;;;;;;28.19;38.18;101706.31;5041074;28;20445;-32
2023/06/17 10:36:58;;;;;;;2.25;1.75;;;;;;;28.22;38.25;101705.88;5045047;28;20217;-32
2023/06/17 10:39:25;;;;;;;2.25;1.80;;;;;;;28.24;38.23;101699.19;5045565;28;20452;-32
2023/06/17 10:42:13;;;;;;;2.10;1.70;;;;;;;28.25;37.70;101698.16;5045249;28;20052;-32
2023/06/17 10:44:42;;;;;;;2.13;1.60;;;;;;;28.28;38.44;101686.84;5044371;28;20144;-32
2023/06/17 10:47:19;;;;;;;2.00;1.80;;;;;;;28.31;38.11;101684.78;5041814;28;20133;-33
2023/06/17 10:49:48;;;;;;;1.92;1.55;;;;;;;28.32;38.28;101673.66;5042301;28;20045;-32
2023/06/17 10:52:16;;;;;;;2.17;1.63;;;;;;;28.35;37.58;101681.44;5042484;28;20053;-33
2023/06/17 10:54:51;;;;;;;1.45;1.35;;;;;;;28.36;38.36;101674.09;5045099;28;20329;-33
2023/06/17 10:57:36;;;;;;;3.17;1.60;;;;;;;28.37;38.27;101681.25;5042414;28;20053;-33
2023/06/17 11:00:08;;;;;;;1.73;1.58;;;;;;;28.39;38.04;101679.19;5041818;28;20345;-33
2023/06/17 11:02:37;;;;;;;1.88;1.60;;;;;;;28.43;37.89;101677.72;5040882;28;20581;-33
2023/06/17 11:05:08;;;;;;;1.65;1.50;;;;;;;28.44;37.80;101668.50;5040084;28;20049;-33
2023/06/17 11:07:35;;;;;;;1.90;1.65;;;;;;;28.45;38.15;101675.63;5041134;28;20053;-32
2023/06/17 11:10:02;;;;;;;1.58;1.40;;;;;;;28.47;37.43;101676.28;5041682;28;20061;-32
2023/06/17 11:12:29;;;;;;;2.03;1.35;;;;;;;28.48;38.13;101664.31;5040638;28;20089;-33
2023/06/17 11:14:59;;;;;;;1.65;1.38;;;;;;;28.51;37.90;101672.09;5042562;28;20048;-32
2023/06/17 11:17:26;;;;;;;1.98;1.60;;;;;;;28.51;38.03;101658.47;5039377;28;20052;-32
2023/06/17 11:19:53;;;;;;;1.55;1.45;;;;;;;28.53;37.41;101662.66;5035807;28;20067;-32
2023/06/17 11:22:20;;;;;;;2.20;1.75;;;;;;;28.56;38.07;101657.84;5041140;28;20130;-32
2023/06/17 11:24:46;;;;;;;2.63;1.65;;;;;;;28.57;37.82;101656.78;5045919;28;20400;-32
2023/06/17 11:27:13;;;;;;;1.73;1.38;;;;;;;28.59;37.43;101658.28;5047942;28;20061;-33
2023/06/17 11:29:43;;;;;;;1.65;1.38;;;;;;;28.60;37.17;101651.78;5032809;28;20050;-32